sensor_id;sensor_type;location;lat;lon;timestamp;pressure;altitude;pressure_sealevel;temperature;humidity
35551;BME280;21655;46.056;13.616;2022-09-23T00:01:51;101050.16;;;9.13;100.00
35551;BME280;21655;46.056;13.616;2022-09-23T00:04:17;101045.19;;;9.17;100.00
35551;BME280;21655;46.056;13.616;2022-09-23T00:06:43;101047.63;;;9.20;100.00
35551;BME280;21655;46.056;13.616;2022-09-23T00:09:08;101038.16;;;9.22;100.00
35551;BME280;21655;46.056;13.616;2022-09-23T00:11:34;101045.13;;;9.26;100.00
35551;BME280;21655;46.056;13.616;2022-09-23T00:13:59;101046.53;;;9.13;100.00
35551;BME280;21655;46.056;13.616;2022-09-23T00:16:28;101051.03;;;9.14;100.00
35551;BME280;21655;46.056;13.616;2022-09-23T00:18:54;101043.44;;;9.16;100.00
35551;BME280;21655;46.056;13.616;2022-09-23T00:21:21;101046.06;;;9.17;100.00
35551;BME280;21655;46.056;13.616;2022-09-23T00:23:47;101053.66;;;9.15;100.00
35551;BME280;21655;46.056;13.616;2022-09-23T00:26:14;101036.88;;;9.17;100.00
35551;BME280;21655;46.056;13.616;2022-09-23T00:28:41;101045.34;;;9.15;100.00
35551;BME280;21655;46.056;13.616;2022-09-23T00:31:12;101033.91;;;9.01;100.00
35551;BME280;21655;46.056;13.616;2022-09-23T00:33:38;101037.31;;;8.95;100.00
35551;BME280;21655;46.056;13.616;2022-09-23T00:36:09;101033.97;;;8.91;100.00
35551;BME280;21655;46.056;13.616;2022-09-23T00:38:36;101028.13;;;8.94;100.00
35551;BME280;21655;46.056;13.616;2022-09-23T00:41:02;101029.06;;;8.85;100.00
35551;BME280;21655;46.056;13.616;2022-09-23T00:43:49;101028.19;;;8.85;100.00
35551;BME280;21655;46.056;13.616;2022-09-23T00:46:22;101028.03;;;8.86;100.00
35551;BME280;21655;46.056;13.616;2022-09-23T00:48:53;101021.53;;;8.78;100.00
35551;BME280;21655;46.056;13.616;2022-09-23T00:51:22;101023.16;;;8.71;100.00
35551;BME280;21655;46.056;13.616;2022-09-23T00:53:49;101016.41;;;8.83;100.00
35551;BME280;21655;46.056;13.616;2022-09-23T00:56:17;101019.94;;;8.75;100.00
35551;BME280;21655;46.056;13.616;2022-09-23T00:58:45;101019.88;;;8.85;100.00
35551;BME280;21655;46.056;13.616;2022-09-23T01:01:12;101015.84;;;8.79;100.00
35551;BME280;21655;46.056;13.616;2022-09-23T01:03:40;101019.56;;;8.61;100.00
35551;BME280;21655;46.056;13.616;2022-09-23T01:06:07;101022.34;;;8.61;100.00
35551;BME280;21655;46.056;13.616;2022-09-23T01:08:33;101016.19;;;8.67;100.00
35551;BME280;21655;46.056;13.616;2022-09-23T01:11:14;101015.16;;;8.68;100.00
35551;BME280;21655;46.056;13.616;2022-09-23T01:16:41;101014.84;;;8.71;100.00
35551;BME280;21655;46.056;13.616;2022-09-23T01:35:37;101005.47;;;8.81;100.00
35551;BME280;21655;46.056;13.616;2022-09-23T01:38:21;101009.75;;;8.76;100.00
35551;BME280;21655;46.056;13.616;2022-09-23T01:40:58;101010.22;;;8.71;100.00
35551;BME280;21655;46.056;13.616;2022-09-23T01:43:47;101005.50;;;8.54;100.00
35551;BME280;21655;46.056;13.616;2022-09-23T01:46:29;101004.16;;;8.58;100.00
35551;BME280;21655;46.056;13.616;2022-09-23T01:49:09;100993.41;;;8.55;100.00
35551;BME280;21655;46.056;13.616;2022-09-23T01:51:41;100996.75;;;8.59;100.00
35551;BME280;21655;46.056;13.616;2022-09-23T01:54:21;100997.47;;;8.61;100.00
35551;BME280;21655;46.056;13.616;2022-09-23T01:56:54;100997.34;;;8.53;100.00
35551;BME280;21655;46.056;13.616;2022-09-23T01:59:37;100990.81;;;8.44;100.00
35551;BME280;21655;46.056;13.616;2022-09-23T02:02:12;100995.94;;;8.39;100.00
35551;BME280;21655;46.056;13.616;2022-09-23T02:05:03;100994.88;;;8.50;100.00
35551;BME280;21655;46.056;13.616;2022-09-23T02:07:39;100995.59;;;8.52;100.00
35551;BME280;21655;46.056;13.616;2022-09-23T02:10:19;100996.31;;;8.54;100.00
35551;BME280;21655;46.056;13.616;2022-09-23T02:12:51;100992.25;;;8.48;100.00
35551;BME280;21655;46.056;13.616;2022-09-23T02:15:31;100994.63;;;8.43;100.00
35551;BME280;21655;46.056;13.616;2022-09-23T02:18:07;100993.50;;;8.36;100.00
35551;BME280;21655;46.056;13.616;2022-09-23T02:20:36;100994.34;;;8.37;100.00
35551;BME280;21655;46.056;13.616;2022-09-23T02:23:20;100988.72;;;8.29;100.00
35551;BME280;21655;46.056;13.616;2022-09-23T02:25:53;100999.88;;;8.37;100.00
35551;BME280;21655;46.056;13.616;2022-09-23T02:28:30;100999.47;;;8.32;100.00
35551;BME280;21655;46.056;13.616;2022-09-23T02:31:10;100991.75;;;8.35;100.00
35551;BME280;21655;46.056;13.616;2022-09-23T02:33:56;100992.06;;;8.32;100.00
35551;BME280;21655;46.056;13.616;2022-09-23T02:36:31;100990.88;;;8.35;100.00
35551;BME280;21655;46.056;13.616;2022-09-23T02:39:02;100987.53;;;8.31;100.00
35551;BME280;21655;46.056;13.616;2022-09-23T02:44:19;100992.34;;;8.29;100.00
35551;BME280;21655;46.056;13.616;2022-09-23T02:46:45;100989.16;;;8.24;100.00
35551;BME280;21655;46.056;13.616;2022-09-23T02:49:27;100985.06;;;8.28;100.00
35551;BME280;21655;46.056;13.616;2022-09-23T02:51:54;100989.88;;;8.26;100.00
35551;BME280;21655;46.056;13.616;2022-09-23T02:54:26;100989.44;;;8.31;100.00
35551;BME280;21655;46.056;13.616;2022-09-23T02:56:53;100988.41;;;8.32;100.00
35551;BME280;21655;46.056;13.616;2022-09-23T02:59:22;100990.00;;;8.34;100.00
35551;BME280;21655;46.056;13.616;2022-09-23T03:02:02;100980.53;;;8.37;100.00
35551;BME280;21655;46.056;13.616;2022-09-23T03:07:29;100982.97;;;8.49;100.00
35551;BME280;21655;46.056;13.616;2022-09-23T03:10:07;100983.47;;;8.62;100.00
35551;BME280;21655;46.056;13.616;2022-09-23T03:12:38;100985.47;;;8.70;100.00
35551;BME280;21655;46.056;13.616;2022-09-23T03:21:02;100968.38;;;8.84;100.00
35551;BME280;21655;46.056;13.616;2022-09-23T03:23:34;100967.22;;;8.86;100.00
35551;BME280;21655;46.056;13.616;2022-09-23T03:26:05;100965.22;;;8.79;100.00
35551;BME280;21655;46.056;13.616;2022-09-23T03:28:35;100972.38;;;8.72;100.00
35551;BME280;21655;46.056;13.616;2022-09-23T03:31:02;100961.09;;;8.83;100.00
35551;BME280;21655;46.056;13.616;2022-09-23T03:33:29;100957.44;;;8.92;100.00
35551;BME280;21655;46.056;13.616;2022-09-23T03:36:05;100958.13;;;8.94;100.00
35551;BME280;21655;46.056;13.616;2022-09-23T03:39:00;100948.81;;;8.95;100.00
35551;BME280;21655;46.056;13.616;2022-09-23T03:41:37;100951.72;;;8.93;100.00
35551;BME280;21655;46.056;13.616;2022-09-23T03:44:05;100952.44;;;8.95;100.00
35551;BME280;21655;46.056;13.616;2022-09-23T03:46:32;100949.13;;;8.92;100.00
35551;BME280;21655;46.056;13.616;2022-09-23T03:49:13;100953.22;;;8.88;100.00
35551;BME280;21655;46.056;13.616;2022-09-23T03:51:39;100952.94;;;8.81;100.00
35551;BME280;21655;46.056;13.616;2022-09-23T03:54:05;100948.00;;;8.85;100.00
35551;BME280;21655;46.056;13.616;2022-09-23T03:56:30;100947.84;;;8.86;100.00
35551;BME280;21655;46.056;13.616;2022-09-23T03:58:56;100958.34;;;8.83;100.00
35551;BME280;21655;46.056;13.616;2022-09-23T04:01:21;100957.38;;;8.74;100.00
35551;BME280;21655;46.056;13.616;2022-09-23T04:03:47;100954.03;;;8.71;100.00
35551;BME280;21655;46.056;13.616;2022-09-23T04:06:13;100951.97;;;8.73;100.00
35551;BME280;21655;46.056;13.616;2022-09-23T04:08:38;100948.22;;;8.74;100.00
35551;BME280;21655;46.056;13.616;2022-09-23T04:11:04;100943.16;;;8.69;100.00
35551;BME280;21655;46.056;13.616;2022-09-23T04:13:30;100952.31;;;8.70;100.00
35551;BME280;21655;46.056;13.616;2022-09-23T04:15:56;100946.50;;;8.63;100.00
35551;BME280;21655;46.056;13.616;2022-09-23T04:18:21;100940.28;;;8.61;100.00
35551;BME280;21655;46.056;13.616;2022-09-23T04:20:48;100935.78;;;8.60;100.00
35551;BME280;21655;46.056;13.616;2022-09-23T04:23:13;100940.75;;;8.57;100.00
35551;BME280;21655;46.056;13.616;2022-09-23T04:25:46;100939.47;;;8.51;100.00
35551;BME280;21655;46.056;13.616;2022-09-23T04:28:12;100939.00;;;8.56;100.00
35551;BME280;21655;46.056;13.616;2022-09-23T04:30:41;100937.81;;;8.58;100.00
35551;BME280;21655;46.056;13.616;2022-09-23T04:33:10;100927.22;;;8.54;100.00
35551;BME280;21655;46.056;13.616;2022-09-23T04:35:37;100935.25;;;8.47;100.00
35551;BME280;21655;46.056;13.616;2022-09-23T04:38:07;100930.47;;;8.40;100.00
35551;BME280;21655;46.056;13.616;2022-09-23T04:40:34;100943.31;;;8.41;100.00
35551;BME280;21655;46.056;13.616;2022-09-23T04:43:00;100939.66;;;8.40;100.00
35551;BME280;21655;46.056;13.616;2022-09-23T04:45:26;100939.41;;;8.34;100.00
35551;BME280;21655;46.056;13.616;2022-09-23T04:47:52;100936.81;;;8.23;100.00
35551;BME280;21655;46.056;13.616;2022-09-23T04:50:17;100938.88;;;8.21;100.00
35551;BME280;21655;46.056;13.616;2022-09-23T04:52:42;100940.59;;;8.22;100.00
35551;BME280;21655;46.056;13.616;2022-09-23T04:55:08;100947.41;;;8.27;100.00
35551;BME280;21655;46.056;13.616;2022-09-23T04:57:34;100946.56;;;8.27;100.00
35551;BME280;21655;46.056;13.616;2022-09-23T05:00:01;100951.97;;;8.19;100.00
35551;BME280;21655;46.056;13.616;2022-09-23T05:02:26;100959.94;;;8.12;100.00
35551;BME280;21655;46.056;13.616;2022-09-23T05:04:52;100965.94;;;8.08;100.00
35551;BME280;21655;46.056;13.616;2022-09-23T05:07:18;100964.31;;;8.15;100.00
35551;BME280;21655;46.056;13.616;2022-09-23T05:09:44;100963.00;;;8.19;100.00
35551;BME280;21655;46.056;13.616;2022-09-23T05:12:10;100965.78;;;8.19;100.00
35551;BME280;21655;46.056;13.616;2022-09-23T05:14:36;100959.66;;;8.25;100.00
35551;BME280;21655;46.056;13.616;2022-09-23T05:17:03;100969.34;;;8.38;100.00
35551;BME280;21655;46.056;13.616;2022-09-23T05:19:29;100969.91;;;8.42;100.00
35551;BME280;21655;46.056;13.616;2022-09-23T05:21:54;100966.84;;;8.45;100.00
35551;BME280;21655;46.056;13.616;2022-09-23T05:24:20;100962.59;;;8.50;100.00
35551;BME280;21655;46.056;13.616;2022-09-23T05:26:50;100958.66;;;8.53;100.00
35551;BME280;21655;46.056;13.616;2022-09-23T05:29:16;100966.09;;;8.52;100.00
35551;BME280;21655;46.056;13.616;2022-09-23T05:31:42;100964.59;;;8.58;100.00
35551;BME280;21655;46.056;13.616;2022-09-23T05:34:07;100964.28;;;8.61;100.00
35551;BME280;21655;46.056;13.616;2022-09-23T05:36:35;100960.34;;;8.63;100.00
35551;BME280;21655;46.056;13.616;2022-09-23T05:39:00;100962.06;;;8.64;100.00
35551;BME280;21655;46.056;13.616;2022-09-23T05:41:26;100968.47;;;8.65;100.00
35551;BME280;21655;46.056;13.616;2022-09-23T05:43:53;100965.84;;;8.63;100.00
35551;BME280;21655;46.056;13.616;2022-09-23T05:46:26;100957.28;;;8.66;100.00
35551;BME280;21655;46.056;13.616;2022-09-23T05:48:55;100954.34;;;8.68;100.00
35551;BME280;21655;46.056;13.616;2022-09-23T05:51:23;100964.50;;;8.77;100.00
35551;BME280;21655;46.056;13.616;2022-09-23T05:53:50;100958.03;;;8.86;100.00
35551;BME280;21655;46.056;13.616;2022-09-23T05:56:18;100949.13;;;8.92;100.00
35551;BME280;21655;46.056;13.616;2022-09-23T05:58:46;100953.31;;;8.96;100.00
35551;BME280;21655;46.056;13.616;2022-09-23T06:01:14;100953.69;;;9.70;100.00
35551;BME280;21655;46.056;13.616;2022-09-23T06:03:44;100934.72;;;12.91;100.00
35551;BME280;21655;46.056;13.616;2022-09-23T06:06:12;100918.00;;;15.27;97.71
35551;BME280;21655;46.056;13.616;2022-09-23T06:08:42;100912.75;;;17.17;75.66
35551;BME280;21655;46.056;13.616;2022-09-23T06:11:08;100904.75;;;18.20;64.59
35551;BME280;21655;46.056;13.616;2022-09-23T06:13:34;100910.44;;;19.09;60.09
35551;BME280;21655;46.056;13.616;2022-09-23T06:16:13;100900.00;;;20.04;56.28
35551;BME280;21655;46.056;13.616;2022-09-23T06:18:40;100911.31;;;20.71;52.97
35551;BME280;21655;46.056;13.616;2022-09-23T06:21:08;100906.00;;;20.87;50.46
35551;BME280;21655;46.056;13.616;2022-09-23T06:23:34;100892.94;;;22.28;47.27
35551;BME280;21655;46.056;13.616;2022-09-23T06:26:04;100906.88;;;22.76;44.08
35551;BME280;21655;46.056;13.616;2022-09-23T06:28:36;100902.19;;;23.55;42.39
35551;BME280;21655;46.056;13.616;2022-09-23T06:31:04;100905.34;;;23.42;42.45
35551;BME280;21655;46.056;13.616;2022-09-23T06:33:32;100909.03;;;24.26;40.64
35551;BME280;21655;46.056;13.616;2022-09-23T06:35:59;100905.13;;;24.77;38.70
35551;BME280;21655;46.056;13.616;2022-09-23T06:38:26;100900.22;;;24.72;38.68
35551;BME280;21655;46.056;13.616;2022-09-23T06:40:53;100896.81;;;25.08;38.55
35551;BME280;21655;46.056;13.616;2022-09-23T06:43:21;100903.66;;;25.93;36.29
35551;BME280;21655;46.056;13.616;2022-09-23T06:45:55;100898.63;;;26.26;36.34
35551;BME280;21655;46.056;13.616;2022-09-23T06:48:21;100899.34;;;25.42;37.18
35551;BME280;21655;46.056;13.616;2022-09-23T06:50:48;100898.41;;;26.96;34.43
35551;BME280;21655;46.056;13.616;2022-09-23T06:53:14;100891.34;;;26.67;33.73
35551;BME280;21655;46.056;13.616;2022-09-23T06:55:40;100904.56;;;26.25;35.58
35551;BME280;21655;46.056;13.616;2022-09-23T06:58:06;100911.63;;;26.75;33.83
35551;BME280;21655;46.056;13.616;2022-09-23T07:00:32;100888.88;;;27.17;33.58
35551;BME280;21655;46.056;13.616;2022-09-23T07:02:57;100895.25;;;27.33;33.49
35551;BME280;21655;46.056;13.616;2022-09-23T07:05:23;100900.38;;;26.32;35.43
35551;BME280;21655;46.056;13.616;2022-09-23T07:07:48;100892.94;;;27.87;32.83
35551;BME280;21655;46.056;13.616;2022-09-23T07:10:14;100889.97;;;28.78;30.86
35551;BME280;21655;46.056;13.616;2022-09-23T07:12:40;100885.69;;;28.51;30.77
35551;BME280;21655;46.056;13.616;2022-09-23T07:15:06;100889.56;;;28.05;31.55
35551;BME280;21655;46.056;13.616;2022-09-23T07:17:31;100892.09;;;27.30;32.30
35551;BME280;21655;46.056;13.616;2022-09-23T07:19:57;100886.28;;;27.61;32.31
35551;BME280;21655;46.056;13.616;2022-09-23T07:22:24;100885.97;;;28.44;31.28
35551;BME280;21655;46.056;13.616;2022-09-23T07:24:51;100891.09;;;28.32;31.33
35551;BME280;21655;46.056;13.616;2022-09-23T07:27:22;100888.06;;;27.21;32.80
35551;BME280;21655;46.056;13.616;2022-09-23T07:29:51;100885.88;;;28.14;30.80
35551;BME280;21655;46.056;13.616;2022-09-23T07:32:17;100887.94;;;28.49;30.61
35551;BME280;21655;46.056;13.616;2022-09-23T07:34:43;100886.50;;;29.11;30.39
35551;BME280;21655;46.056;13.616;2022-09-23T07:37:11;100891.66;;;28.89;29.88
35551;BME280;21655;46.056;13.616;2022-09-23T07:39:37;100884.81;;;28.65;29.76
35551;BME280;21655;46.056;13.616;2022-09-23T07:42:04;100875.19;;;29.69;29.34
35551;BME280;21655;46.056;13.616;2022-09-23T07:44:30;100882.06;;;30.60;27.73
35551;BME280;21655;46.056;13.616;2022-09-23T07:46:56;100883.66;;;28.56;29.40
35551;BME280;21655;46.056;13.616;2022-09-23T07:49:23;100882.75;;;29.16;30.18
35551;BME280;21655;46.056;13.616;2022-09-23T07:51:48;100879.06;;;27.49;30.75
35551;BME280;21655;46.056;13.616;2022-09-23T07:54:15;100875.06;;;31.05;27.49
35551;BME280;21655;46.056;13.616;2022-09-23T07:56:42;100866.03;;;30.64;27.00
35551;BME280;21655;46.056;13.616;2022-09-23T07:59:11;100877.31;;;31.13;26.69
35551;BME280;21655;46.056;13.616;2022-09-23T08:01:41;100873.13;;;30.33;26.96
35551;BME280;21655;46.056;13.616;2022-09-23T08:04:18;100877.84;;;29.46;27.92
35551;BME280;21655;46.056;13.616;2022-09-23T08:06:46;100877.47;;;29.72;28.92
35551;BME280;21655;46.056;13.616;2022-09-23T08:09:13;100877.88;;;31.61;26.47
35551;BME280;21655;46.056;13.616;2022-09-23T08:11:39;100875.44;;;33.35;25.05
35551;BME280;21655;46.056;13.616;2022-09-23T08:14:10;100872.47;;;33.80;24.10
35551;BME280;21655;46.056;13.616;2022-09-23T08:16:37;100874.38;;;33.98;23.95
35551;BME280;21655;46.056;13.616;2022-09-23T08:19:03;100877.47;;;32.33;24.62
35551;BME280;21655;46.056;13.616;2022-09-23T08:21:28;100863.59;;;33.23;23.38
35551;BME280;21655;46.056;13.616;2022-09-23T08:23:54;100872.44;;;29.49;27.45
35551;BME280;21655;46.056;13.616;2022-09-23T08:26:19;100870.38;;;31.89;24.65
35551;BME280;21655;46.056;13.616;2022-09-23T08:28:45;100863.53;;;31.85;24.74
35551;BME280;21655;46.056;13.616;2022-09-23T08:31:12;100865.13;;;33.15;24.20
35551;BME280;21655;46.056;13.616;2022-09-23T08:33:39;100854.63;;;32.79;23.85
35551;BME280;21655;46.056;13.616;2022-09-23T08:36:05;100863.50;;;32.08;24.37
35551;BME280;21655;46.056;13.616;2022-09-23T08:38:31;100849.56;;;30.41;27.71
35551;BME280;21655;46.056;13.616;2022-09-23T08:41:36;100856.09;;;31.84;25.59
35551;BME280;21655;46.056;13.616;2022-09-23T08:44:13;100853.13;;;32.31;24.78
35551;BME280;21655;46.056;13.616;2022-09-23T08:46:45;100854.97;;;33.23;23.63
35551;BME280;21655;46.056;13.616;2022-09-23T08:49:18;100853.16;;;32.63;24.12
35551;BME280;21655;46.056;13.616;2022-09-23T08:51:46;100842.28;;;32.78;24.28
35551;BME280;21655;46.056;13.616;2022-09-23T08:54:15;100847.97;;;32.97;24.07
35551;BME280;21655;46.056;13.616;2022-09-23T08:56:44;100842.94;;;33.47;24.27
35551;BME280;21655;46.056;13.616;2022-09-23T08:59:39;100837.22;;;34.81;22.26
35551;BME280;21655;46.056;13.616;2022-09-23T09:02:17;100830.63;;;34.23;23.01
35551;BME280;21655;46.056;13.616;2022-09-23T09:04:44;100837.72;;;32.91;23.27
35551;BME280;21655;46.056;13.616;2022-09-23T09:07:17;100832.44;;;32.10;24.73
35551;BME280;21655;46.056;13.616;2022-09-23T09:09:52;100824.66;;;30.75;25.85
35551;BME280;21655;46.056;13.616;2022-09-23T09:13:22;100820.25;;;33.33;23.45
35551;BME280;21655;46.056;13.616;2022-09-23T09:15:47;100826.16;;;33.09;24.22
35551;BME280;21655;46.056;13.616;2022-09-23T09:18:18;100808.94;;;33.23;23.32
35551;BME280;21655;46.056;13.616;2022-09-23T09:25:59;100805.22;;;34.25;22.79
35551;BME280;21655;46.056;13.616;2022-09-23T09:28:30;100799.50;;;34.99;21.77
35551;BME280;21655;46.056;13.616;2022-09-23T09:31:01;100792.22;;;35.32;21.70
35551;BME280;21655;46.056;13.616;2022-09-23T09:33:34;100795.34;;;34.61;21.30
35551;BME280;21655;46.056;13.616;2022-09-23T09:38:46;100790.13;;;32.53;23.22
35551;BME280;21655;46.056;13.616;2022-09-23T09:41:16;100792.47;;;31.77;24.03
35551;BME280;21655;46.056;13.616;2022-09-23T09:43:46;100787.16;;;31.47;24.28
35551;BME280;21655;46.056;13.616;2022-09-23T09:49:01;100779.97;;;32.42;23.98
35551;BME280;21655;46.056;13.616;2022-09-23T09:51:31;100774.59;;;32.86;23.45
35551;BME280;21655;46.056;13.616;2022-09-23T09:54:16;100778.44;;;32.12;23.24
35551;BME280;21655;46.056;13.616;2022-09-23T09:56:43;100772.41;;;30.60;25.41
35551;BME280;21655;46.056;13.616;2022-09-23T09:59:10;100777.13;;;28.96;27.05
35551;BME280;21655;46.056;13.616;2022-09-23T10:01:39;100771.41;;;30.07;26.10
35551;BME280;21655;46.056;13.616;2022-09-23T10:04:19;100767.28;;;30.23;25.55
35551;BME280;21655;46.056;13.616;2022-09-23T10:07:04;100765.97;;;29.67;26.47
35551;BME280;21655;46.056;13.616;2022-09-23T10:09:34;100768.03;;;27.94;28.45
35551;BME280;21655;46.056;13.616;2022-09-23T10:12:15;100759.19;;;28.25;27.76
35551;BME280;21655;46.056;13.616;2022-09-23T10:14:44;100758.00;;;30.03;27.75
35551;BME280;21655;46.056;13.616;2022-09-23T10:17:16;100765.66;;;29.06;28.73
35551;BME280;21655;46.056;13.616;2022-09-23T10:19:46;100761.66;;;29.07;27.42
35551;BME280;21655;46.056;13.616;2022-09-23T10:22:24;100764.53;;;27.52;28.53
35551;BME280;21655;46.056;13.616;2022-09-23T10:24:58;100754.59;;;26.93;29.57
35551;BME280;21655;46.056;13.616;2022-09-23T10:27:30;100764.59;;;26.96;29.92
35551;BME280;21655;46.056;13.616;2022-09-23T10:30:23;100768.81;;;26.10;31.56
35551;BME280;21655;46.056;13.616;2022-09-23T10:32:50;100766.19;;;27.38;29.48
35551;BME280;21655;46.056;13.616;2022-09-23T10:35:20;100770.59;;;27.04;29.07
35551;BME280;21655;46.056;13.616;2022-09-23T10:37:54;100772.88;;;26.56;30.20
35551;BME280;21655;46.056;13.616;2022-09-23T10:40:40;100753.06;;;26.76;30.17
35551;BME280;21655;46.056;13.616;2022-09-23T10:46:36;100759.47;;;28.59;27.69
35551;BME280;21655;46.056;13.616;2022-09-23T10:52:28;100755.78;;;28.23;28.21
35551;BME280;21655;46.056;13.616;2022-09-23T10:55:03;100742.88;;;28.76;27.83
35551;BME280;21655;46.056;13.616;2022-09-23T11:11:50;100735.16;;;26.75;29.04
35551;BME280;21655;46.056;13.616;2022-09-23T11:20:03;100729.06;;;27.18;30.86
35551;BME280;21655;46.056;13.616;2022-09-23T11:38:49;100723.16;;;27.39;30.21
35551;BME280;21655;46.056;13.616;2022-09-23T11:41:29;100711.03;;;26.46;32.22
35551;BME280;21655;46.056;13.616;2022-09-23T11:44:16;100711.94;;;27.03;30.70
35551;BME280;21655;46.056;13.616;2022-09-23T11:46:49;100714.56;;;26.58;31.91
35551;BME280;21655;46.056;13.616;2022-09-23T11:49:28;100706.81;;;27.05;31.06
35551;BME280;21655;46.056;13.616;2022-09-23T11:54:28;100704.19;;;25.43;33.59
35551;BME280;21655;46.056;13.616;2022-09-23T11:57:00;100703.63;;;26.40;32.09
35551;BME280;21655;46.056;13.616;2022-09-23T11:59:37;100703.59;;;28.03;29.55
35551;BME280;21655;46.056;13.616;2022-09-23T12:02:14;100701.59;;;27.83;28.94
35551;BME280;21655;46.056;13.616;2022-09-23T12:04:44;100697.84;;;28.48;29.98
35551;BME280;21655;46.056;13.616;2022-09-23T12:07:16;100690.22;;;26.87;30.60
35551;BME280;21655;46.056;13.616;2022-09-23T12:10:04;100697.28;;;27.61;29.85
35551;BME280;21655;46.056;13.616;2022-09-23T12:13:35;100687.44;;;27.07;30.33
35551;BME280;21655;46.056;13.616;2022-09-23T12:16:01;100684.13;;;27.30;30.98
35551;BME280;21655;46.056;13.616;2022-09-23T12:18:42;100677.47;;;27.00;30.49
35551;BME280;21655;46.056;13.616;2022-09-23T12:21:34;100675.25;;;27.21;30.22
35551;BME280;21655;46.056;13.616;2022-09-23T12:26:53;100680.78;;;27.93;29.72
35551;BME280;21655;46.056;13.616;2022-09-23T12:29:24;100675.06;;;26.77;31.19
35551;BME280;21655;46.056;13.616;2022-09-23T12:31:51;100672.09;;;27.13;30.70
35551;BME280;21655;46.056;13.616;2022-09-23T12:34:35;100673.00;;;26.57;31.43
35551;BME280;21655;46.056;13.616;2022-09-23T12:37:02;100672.84;;;26.89;32.09
35551;BME280;21655;46.056;13.616;2022-09-23T12:39:32;100675.16;;;25.67;32.95
35551;BME280;21655;46.056;13.616;2022-09-23T12:42:05;100670.44;;;26.14;32.42
35551;BME280;21655;46.056;13.616;2022-09-23T12:44:40;100657.53;;;26.95;31.55
35551;BME280;21655;46.056;13.616;2022-09-23T12:49:55;100659.13;;;26.71;31.63
35551;BME280;21655;46.056;13.616;2022-09-23T12:54:50;100646.59;;;26.67;31.61
35551;BME280;21655;46.056;13.616;2022-09-23T13:02:36;100645.06;;;27.16;31.51
35551;BME280;21655;46.056;13.616;2022-09-23T13:05:20;100644.34;;;26.22;32.98
35551;BME280;21655;46.056;13.616;2022-09-23T13:08:15;100650.44;;;26.46;33.41
35551;BME280;21655;46.056;13.616;2022-09-23T13:11:02;100641.22;;;26.24;32.29
35551;BME280;21655;46.056;13.616;2022-09-23T13:16:23;100639.06;;;25.10;34.76
35551;BME280;21655;46.056;13.616;2022-09-23T13:18:53;100638.00;;;24.90;35.56
35551;BME280;21655;46.056;13.616;2022-09-23T13:26:39;100635.06;;;23.33;37.82
35551;BME280;21655;46.056;13.616;2022-09-23T13:29:14;100627.03;;;22.97;38.99
35551;BME280;21655;46.056;13.616;2022-09-23T13:31:41;100618.00;;;22.84;39.83
35551;BME280;21655;46.056;13.616;2022-09-23T13:34:10;100620.16;;;22.93;38.76
35551;BME280;21655;46.056;13.616;2022-09-23T13:36:44;100627.66;;;22.20;40.06
35551;BME280;21655;46.056;13.616;2022-09-23T13:39:22;100617.41;;;22.03;42.79
35551;BME280;21655;46.056;13.616;2022-09-23T13:41:54;100611.09;;;22.63;42.46
35551;BME280;21655;46.056;13.616;2022-09-23T13:44:22;100615.53;;;22.59;41.06
35551;BME280;21655;46.056;13.616;2022-09-23T13:46:53;100612.28;;;22.39;41.35
35551;BME280;21655;46.056;13.616;2022-09-23T13:49:22;100614.59;;;22.70;41.82
35551;BME280;21655;46.056;13.616;2022-09-23T13:51:49;100611.66;;;22.49;42.20
35551;BME280;21655;46.056;13.616;2022-09-23T13:54:33;100611.00;;;22.47;41.35
35551;BME280;21655;46.056;13.616;2022-09-23T13:57:01;100620.78;;;22.16;41.07
35551;BME280;21655;46.056;13.616;2022-09-23T13:59:30;100618.38;;;21.85;42.21
35551;BME280;21655;46.056;13.616;2022-09-23T14:02:15;100616.31;;;21.92;42.99
35551;BME280;21655;46.056;13.616;2022-09-23T14:04:41;100615.66;;;22.13;42.11
35551;BME280;21655;46.056;13.616;2022-09-23T14:07:09;100607.22;;;21.79;43.04
35551;BME280;21655;46.056;13.616;2022-09-23T14:09:35;100607.69;;;21.87;41.81
35551;BME280;21655;46.056;13.616;2022-09-23T14:12:04;100605.75;;;21.76;42.31
35551;BME280;21655;46.056;13.616;2022-09-23T14:14:33;100606.88;;;21.75;42.21
35551;BME280;21655;46.056;13.616;2022-09-23T14:17:01;100605.25;;;21.79;42.06
35551;BME280;21655;46.056;13.616;2022-09-23T14:19:28;100600.06;;;21.19;43.66
35551;BME280;21655;46.056;13.616;2022-09-23T14:21:54;100592.84;;;21.34;43.49
35551;BME280;21655;46.056;13.616;2022-09-23T14:24:34;100594.19;;;21.78;43.75
35551;BME280;21655;46.056;13.616;2022-09-23T14:29:41;100594.06;;;21.38;44.91
35551;BME280;21655;46.056;13.616;2022-09-23T14:42:49;100582.75;;;21.27;44.85
35551;BME280;21655;46.056;13.616;2022-09-23T14:45:22;100591.38;;;21.43;47.60
35551;BME280;21655;46.056;13.616;2022-09-23T14:47:51;100584.25;;;21.18;46.56
35551;BME280;21655;46.056;13.616;2022-09-23T14:50:20;100579.06;;;21.15;47.46
35551;BME280;21655;46.056;13.616;2022-09-23T14:55:53;100572.88;;;20.84;50.24
35551;BME280;21655;46.056;13.616;2022-09-23T14:58:26;100586.91;;;21.13;51.38
35551;BME280;21655;46.056;13.616;2022-09-23T15:00:56;100587.78;;;21.13;50.36
35551;BME280;21655;46.056;13.616;2022-09-23T15:03:23;100588.50;;;21.09;50.18
35551;BME280;21655;46.056;13.616;2022-09-23T15:05:50;100583.25;;;21.35;50.50